Time,TemperatureF,DewpointF,PressureIn,WindDirection,WindDirectionDegrees,WindSpeedMPH,WindSpeedGustMPH,Humidity,HourlyPrecipIn,Conditions,Clouds,dailyrainin,SoftwareType,DateUTC
2013-08-21 00:00:00,78.4,76.2,30.13,ENE,75,0.0,7.0,93,0.00,,,0.00,Wunderground v.1.15,2013-08-21 04:00:00,
2013-08-21 00:10:00,78.2,76.0,30.13,ENE,75,0.0,7.0,93,0.00,,,0.00,Wunderground v.1.15,2013-08-21 04:10:00,
2013-08-21 00:20:00,78.1,76.2,30.12,ENE,75,0.0,7.0,94,0.00,,,0.00,Wunderground v.1.15,2013-08-21 04:20:00,
2013-08-21 00:30:00,78.0,76.1,30.12,ENE,75,0.0,7.0,94,0.00,,,0.00,Wunderground v.1.15,2013-08-21 04:30:00,
2013-08-21 00:40:00,77.9,76.0,30.12,ENE,75,0.0,7.0,94,0.00,,,0.00,Wunderground v.1.15,2013-08-21 04:40:00,
2013-08-21 00:50:00,77.8,76.3,30.12,ENE,75,0.0,7.0,95,0.00,,,0.00,Wunderground v.1.15,2013-08-21 04:50:00,
2013-08-21 01:00:00,77.6,76.1,30.12,ENE,75,0.0,7.0,95,0.00,,,0.00,Wunderground v.1.15,2013-08-21 05:00:00,
2013-08-21 01:10:00,77.5,76.0,30.11,ENE,75,0.0,7.0,95,0.00,,,0.00,Wunderground v.1.15,2013-08-21 05:10:00,
2013-08-21 01:20:00,77.5,76.0,30.11,ENE,75,0.0,7.0,95,0.00,,,0.00,Wunderground v.1.15,2013-08-21 05:20:00,
2013-08-21 01:30:00,77.5,76.0,30.11,ENE,75,0.0,7.0,95,0.00,,,0.00,Wunderground v.1.15,2013-08-21 05:30:00,
2013-08-21 01:40:00,77.6,76.4,30.11,ENE,75,0.0,7.0,96,0.00,,,0.00,Wunderground v.1.15,2013-08-21 05:40:00,
2013-08-21 01:50:00,77.7,76.2,30.10,ENE,75,0.0,7.0,95,0.00,,,0.00,Wunderground v.1.15,2013-08-21 05:50:00,
2013-08-21 02:00:00,77.6,76.1,30.11,ENE,75,0.0,7.0,95,0.00,,,0.00,Wunderground v.1.15,2013-08-21 06:00:00,
2013-08-21 02:10:00,77.6,76.1,30.11,ENE,75,0.0,7.0,95,0.00,,,0.00,Wunderground v.1.15,2013-08-21 06:10:00,
2013-08-21 02:20:00,77.5,76.0,30.11,ENE,75,0.0,7.0,95,0.00,,,0.00,Wunderground v.1.15,2013-08-21 06:20:00,
2013-08-21 02:30:00,77.4,75.9,30.10,ENE,75,0.0,7.0,95,0.00,,,0.00,Wunderground v.1.15,2013-08-21 06:30:00,
2013-08-21 02:40:00,77.3,75.8,30.10,ENE,75,0.0,7.0,95,0.00,,,0.00,Wunderground v.1.15,2013-08-21 06:40:00,
2013-08-21 02:50:00,77.0,75.5,30.10,ENE,75,0.0,7.0,95,0.00,,,0.00,Wunderground v.1.15,2013-08-21 06:50:00,
2013-08-21 03:00:00,76.8,75.3,30.10,ENE,75,0.0,7.0,95,0.00,,,0.00,Wunderground v.1.15,2013-08-21 07:00:00,
2013-08-21 03:10:00,76.9,75.7,30.10,ENE,75,0.0,7.0,96,0.00,,,0.00,Wunderground v.1.15,2013-08-21 07:10:00,
2013-08-21 03:20:00,76.9,75.7,30.09,ENE,75,0.0,7.0,96,0.00,,,0.00,Wunderground v.1.15,2013-08-21 07:20:00,
2013-08-21 03:30:00,76.8,75.6,30.10,ENE,75,0.0,7.0,96,0.00,,,0.00,Wunderground v.1.15,2013-08-21 07:30:00,
2013-08-21 03:40:00,76.7,75.5,30.10,ENE,75,0.0,7.0,96,0.00,,,0.00,Wunderground v.1.15,2013-08-21 07:40:00,
2013-08-21 03:50:00,76.6,75.4,30.09,ENE,75,0.0,7.0,96,0.00,,,0.00,Wunderground v.1.15,2013-08-21 07:50:00,
2013-08-21 04:00:00,76.4,75.2,30.09,ENE,75,0.0,7.0,96,0.00,,,0.00,Wunderground v.1.15,2013-08-21 08:00:00,
2013-08-21 04:10:00,76.4,75.2,30.10,ENE,75,0.0,7.0,96,0.00,,,0.00,Wunderground v.1.15,2013-08-21 08:10:00,
2013-08-21 04:20:00,76.4,75.5,30.10,ENE,75,0.0,7.0,97,0.00,,,0.00,Wunderground v.1.15,2013-08-21 08:20:00,
2013-08-21 04:30:00,76.3,75.1,30.10,ENE,75,0.0,7.0,96,0.00,,,0.00,Wunderground v.1.15,2013-08-21 08:30:00,
2013-08-21 04:40:00,76.3,75.4,30.09,ENE,75,0.0,7.0,97,0.00,,,0.00,Wunderground v.1.15,2013-08-21 08:40:00,
2013-08-21 04:50:00,76.2,75.3,30.10,ENE,75,0.0,7.0,97,0.00,,,0.00,Wunderground v.1.15,2013-08-21 08:50:00,
2013-08-21 05:00:00,76.2,75.3,30.10,ENE,75,0.0,7.0,97,0.00,,,0.00,Wunderground v.1.15,2013-08-21 09:00:00,
2013-08-21 05:10:00,76.2,75.3,30.10,ENE,75,0.0,7.0,97,0.00,,,0.00,Wunderground v.1.15,2013-08-21 09:10:00,
2013-08-21 05:20:00,76.2,75.3,30.09,ENE,75,0.0,7.0,97,0.00,,,0.00,Wunderground v.1.15,2013-08-21 09:20:00,
2013-08-21 05:30:00,76.1,75.2,30.10,ENE,75,0.0,7.0,97,0.00,,,0.00,Wunderground v.1.15,2013-08-21 09:30:00,
2013-08-21 05:40:00,76.0,75.1,30.10,ENE,75,0.0,7.0,97,0.00,,,0.00,Wunderground v.1.15,2013-08-21 09:40:00,
2013-08-21 05:50:00,76.0,75.1,30.10,ENE,75,0.0,7.0,97,0.00,,,0.00,Wunderground v.1.15,2013-08-21 09:50:00,
2013-08-21 06:00:00,76.0,75.1,30.10,ENE,75,0.0,7.0,97,0.00,,,0.00,Wunderground v.1.15,2013-08-21 10:00:00,
2013-08-21 06:10:00,76.0,75.1,30.10,ENE,75,0.0,7.0,97,0.00,,,0.00,Wunderground v.1.15,2013-08-21 10:10:00,
2013-08-21 06:20:00,76.0,75.1,30.10,ENE,75,0.0,7.0,97,0.00,,,0.00,Wunderground v.1.15,2013-08-21 10:20:00,
2013-08-21 06:30:00,76.1,75.2,30.11,ENE,75,0.0,7.0,97,0.00,,,0.00,Wunderground v.1.15,2013-08-21 10:30:00,
2013-08-21 06:40:00,76.0,75.4,30.11,ENE,75,0.0,7.0,98,0.00,,,0.00,Wunderground v.1.15,2013-08-21 10:40:00,
2013-08-21 06:50:00,75.9,75.3,30.11,ENE,75,0.0,7.0,98,0.00,,,0.00,Wunderground v.1.15,2013-08-21 10:50:00,
2013-08-21 07:00:00,76.0,75.4,30.11,ENE,75,0.0,7.0,98,0.00,,,0.00,Wunderground v.1.15,2013-08-21 11:00:00,
2013-08-21 07:10:00,75.9,75.3,30.12,ENE,75,0.0,7.0,98,0.00,,,0.00,Wunderground v.1.15,2013-08-21 11:10:00,
2013-08-21 07:20:00,76.1,75.5,30.12,ENE,75,0.0,7.0,98,0.00,,,0.00,Wunderground v.1.15,2013-08-21 11:20:00,
2013-08-21 07:30:00,76.4,75.8,30.12,ENE,75,0.0,7.0,98,0.00,,,0.00,Wunderground v.1.15,2013-08-21 11:30:00,
2013-08-21 07:40:00,76.6,76.0,30.12,ENE,75,0.0,7.0,98,0.00,,,0.00,Wunderground v.1.15,2013-08-21 11:40:00,
2013-08-21 07:50:00,76.9,76.3,30.13,ENE,75,0.0,7.0,98,0.00,,,0.00,Wunderground v.1.15,2013-08-21 11:50:00,
2013-08-21 08:00:00,77.5,76.9,30.13,ENE,75,0.0,7.0,98,0.00,,,0.00,Wunderground v.1.15,2013-08-21 12:00:00,
2013-08-21 08:10:00,78.3,78.0,30.13,ENE,75,0.0,7.0,99,0.00,,,0.00,Wunderground v.1.15,2013-08-21 12:10:00,
2013-08-21 08:20:00,78.7,78.1,30.13,ENE,75,0.0,7.0,98,0.00,,,0.00,Wunderground v.1.15,2013-08-21 12:20:00,
2013-08-21 08:30:00,79.1,78.5,30.13,ENE,76,0.0,7.0,98,0.00,,,0.00,Wunderground v.1.15,2013-08-21 12:30:00,
2013-08-21 08:40:00,79.7,78.5,30.14,ENE,65,0.0,7.0,96,0.00,,,0.00,Wunderground v.1.15,2013-08-21 12:40:00,
2013-08-21 08:50:00,80.5,78.9,30.14,ENE,76,0.0,7.0,95,0.00,,,0.00,Wunderground v.1.15,2013-08-21 12:50:00,
2013-08-21 09:00:00,81.9,79.0,30.15,SE,130,0.0,7.0,91,0.00,,,0.00,Wunderground v.1.15,2013-08-21 13:00:00,
2013-08-21 09:10:00,82.9,79.0,30.15,ENE,68,0.0,7.0,88,0.00,,,0.00,Wunderground v.1.15,2013-08-21 13:10:00,
2013-08-21 09:20:00,83.2,78.9,30.16,East,98,0.0,7.0,87,0.00,,,0.00,Wunderground v.1.15,2013-08-21 13:20:00,
2013-08-21 09:30:00,83.2,78.9,30.16,East,98,0.0,7.0,87,0.00,,,0.00,Wunderground v.1.15,2013-08-21 13:30:00,
2013-08-21 09:40:00,82.9,79.0,30.15,East,98,0.0,7.0,88,0.00,,,0.00,Wunderground v.1.15,2013-08-21 13:40:00,
2013-08-21 09:50:00,82.8,78.9,30.16,East,98,0.0,7.0,88,0.00,,,0.00,Wunderground v.1.15,2013-08-21 13:50:00,
2013-08-21 10:00:00,82.8,79.2,30.17,NNE,30,0.0,7.0,89,5.38,,,0.11,Wunderground v.1.15,2013-08-21 14:00:00,
2013-08-21 10:10:00,80.0,76.8,30.17,NNE,16,0.0,7.0,90,0.43,,,0.24,Wunderground v.1.15,2013-08-21 14:10:00,
2013-08-21 10:20:00,78.4,75.9,30.16,NNE,16,0.0,7.0,92,0.06,,,0.25,Wunderground v.1.15,2013-08-21 14:20:00,
2013-08-21 10:30:00,78.0,75.8,30.16,NNE,16,0.0,7.0,93,0.00,,,0.25,Wunderground v.1.15,2013-08-21 14:30:00,
2013-08-21 10:40:00,78.0,76.5,30.17,NNE,16,0.0,7.0,95,0.00,,,0.25,Wunderground v.1.15,2013-08-21 14:40:00,
2013-08-21 10:50:00,78.9,77.7,30.17,NNE,16,0.0,7.0,96,0.00,,,0.25,Wunderground v.1.15,2013-08-21 14:50:00,
2013-08-21 11:00:00,79.9,78.7,30.17,NNE,16,0.0,7.0,96,0.00,,,0.25,Wunderground v.1.15,2013-08-21 15:00:00,
2013-08-21 11:10:00,81.2,80.0,30.18,ENE,57,0.0,7.0,96,0.00,,,0.25,Wunderground v.1.15,2013-08-21 15:10:00,
2013-08-21 11:20:00,82.0,80.4,30.18,NE,55,0.0,7.0,95,0.00,,,0.25,Wunderground v.1.15,2013-08-21 15:20:00,
2013-08-21 11:30:00,82.5,80.3,30.18,NE,54,0.0,7.0,93,0.00,,,0.25,Wunderground v.1.15,2013-08-21 15:30:00,
2013-08-21 11:40:00,83.8,80.2,30.17,NE,49,0.0,7.0,89,0.00,,,0.25,Wunderground v.1.15,2013-08-21 15:40:00,
2013-08-21 11:50:00,84.4,79.7,30.16,SE,127,0.0,7.0,86,0.00,,,0.25,Wunderground v.1.15,2013-08-21 15:50:00,
2013-08-21 12:00:00,84.6,78.9,30.16,East,90,1.0,1.0,83,0.00,,,0.25,Wunderground v.1.15,2013-08-21 16:00:00,
2013-08-21 12:10:00,85.8,80.0,30.16,East,88,0.0,7.0,83,0.00,,,0.25,Wunderground v.1.15,2013-08-21 16:10:00,
2013-08-21 12:20:00,86.6,81.2,30.15,NNE,19,0.0,7.0,84,0.00,,,0.25,Wunderground v.1.15,2013-08-21 16:20:00,
2013-08-21 12:30:00,87.1,79.0,30.15,ENE,65,0.0,7.0,77,0.00,,,0.25,Wunderground v.1.15,2013-08-21 16:30:00,
2013-08-21 12:40:00,86.6,79.3,30.16,ENE,70,0.0,7.0,79,0.00,,,0.25,Wunderground v.1.15,2013-08-21 16:40:00,
2013-08-21 12:50:00,86.3,79.0,30.16,SSE,152,0.0,7.0,79,0.00,,,0.25,Wunderground v.1.15,2013-08-21 16:50:00,
2013-08-21 13:00:00,86.4,79.1,30.16,NE,38,1.0,1.0,79,0.00,,,0.25,Wunderground v.1.15,2013-08-21 17:00:00,
2013-08-21 13:10:00,85.9,78.2,30.16,NE,51,2.0,2.0,78,0.00,,,0.25,Wunderground v.1.15,2013-08-21 17:10:00,
2013-08-21 13:20:00,85.7,78.0,30.16,East,88,1.0,7.0,78,0.00,,,0.25,Wunderground v.1.15,2013-08-21 17:20:00,
2013-08-21 13:30:00,84.9,79.2,30.15,ENE,74,0.0,7.0,83,0.00,,,0.25,Wunderground v.1.15,2013-08-21 17:30:00,
2013-08-21 13:40:00,83.8,78.8,30.16,East,80,0.0,7.0,85,0.00,,,0.25,Wunderground v.1.15,2013-08-21 17:40:00,
2013-08-21 13:50:00,82.7,78.4,30.15,ENE,57,0.0,7.0,87,0.00,,,0.26,Wunderground v.1.15,2013-08-21 17:50:00,
2013-08-21 14:00:00,81.4,78.2,30.13,NE,45,0.0,7.0,90,0.13,,,0.28,Wunderground v.1.15,2013-08-21 18:00:00,
2013-08-21 14:10:00,80.5,78.0,30.13,ENE,66,0.0,7.0,92,0.12,,,0.31,Wunderground v.1.15,2013-08-21 18:10:00,
2013-08-21 14:20:00,79.9,77.7,30.12,NE,38,0.0,7.0,93,0.07,,,0.32,Wunderground v.1.15,2013-08-21 18:20:00,
2013-08-21 14:30:00,79.4,77.5,30.12,ENE,61,0.0,7.0,94,0.05,,,0.32,Wunderground v.1.15,2013-08-21 18:30:00,
2013-08-21 14:40:00,79.0,77.1,30.13,East,92,0.0,7.0,94,0.00,,,0.32,Wunderground v.1.15,2013-08-21 18:40:00,
2013-08-21 14:50:00,79.1,77.2,30.14,East,92,0.0,7.0,94,0.00,,,0.33,Wunderground v.1.15,2013-08-21 18:50:00,
2013-08-21 15:00:00,79.1,77.5,30.15,SE,130,0.0,7.0,95,0.00,,,0.33,Wunderground v.1.15,2013-08-21 19:00:00,
2013-08-21 15:10:00,79.3,77.7,30.15,SE,129,0.0,7.0,95,0.00,,,0.33,Wunderground v.1.15,2013-08-21 19:10:00,
2013-08-21 15:20:00,79.4,77.5,30.14,ESE,122,0.0,7.0,94,0.00,,,0.33,Wunderground v.1.15,2013-08-21 19:20:00,
2013-08-21 15:30:00,79.8,77.9,30.14,ESE,122,0.0,7.0,94,0.00,,,0.33,Wunderground v.1.15,2013-08-21 19:30:00,
2013-08-21 15:40:00,80.3,76.8,30.13,ESE,122,0.0,7.0,89,0.00,,,0.33,Wunderground v.1.15,2013-08-21 19:40:00,
2013-08-21 15:50:00,80.8,74.8,30.13,ENE,67,0.0,7.0,82,0.00,,,0.33,Wunderground v.1.15,2013-08-21 19:50:00,
2013-08-21 16:00:00,82.8,76.7,30.12,ESE,104,0.0,7.0,82,0.00,,,0.33,Wunderground v.1.15,2013-08-21 20:00:00,
2013-08-21 16:10:00,84.6,76.2,30.11,East,87,0.0,7.0,76,0.00,,,0.33,Wunderground v.1.15,2013-08-21 20:10:00,
2013-08-21 16:20:00,85.3,77.3,30.11,East,97,0.0,7.0,77,0.00,,,0.33,Wunderground v.1.15,2013-08-21 20:20:00,
2013-08-21 16:30:00,85.8,77.8,30.11,East,80,1.0,1.0,77,0.00,,,0.33,Wunderground v.1.15,2013-08-21 20:30:00,
2013-08-21 16:40:00,85.0,77.8,30.11,ESE,110,0.0,7.0,79,0.00,,,0.33,Wunderground v.1.15,2013-08-21 20:40:00,
2013-08-21 16:50:00,84.8,77.9,30.10,NE,48,0.0,7.0,80,0.00,,,0.33,Wunderground v.1.15,2013-08-21 20:50:00,
2013-08-21 17:00:00,85.0,77.8,30.10,WNW,286,0.0,7.0,79,0.00,,,0.33,Wunderground v.1.15,2013-08-21 21:00:00,
2013-08-21 17:10:00,85.9,78.2,30.11,NNE,19,0.0,7.0,78,0.00,,,0.33,Wunderground v.1.15,2013-08-21 21:10:00,
2013-08-21 17:20:00,86.5,78.4,30.10,ENE,74,0.0,7.0,77,0.00,,,0.33,Wunderground v.1.15,2013-08-21 21:20:00,
2013-08-21 17:30:00,86.6,78.5,30.10,ENE,60,0.0,7.0,77,0.00,,,0.33,Wunderground v.1.15,2013-08-21 21:30:00,
2013-08-21 17:40:00,86.3,78.2,30.10,NNE,30,0.0,7.0,77,0.00,,,0.33,Wunderground v.1.15,2013-08-21 21:40:00,
2013-08-21 17:50:00,86.4,79.1,30.10,NE,36,0.0,7.0,79,0.00,,,0.33,Wunderground v.1.15,2013-08-21 21:50:00,
2013-08-21 18:00:00,86.0,77.9,30.10,ESE,105,0.0,7.0,77,0.00,,,0.33,Wunderground v.1.15,2013-08-21 22:00:00,
2013-08-21 18:10:00,85.6,77.9,30.11,ENE,68,1.0,1.0,78,0.00,,,0.33,Wunderground v.1.15,2013-08-21 22:10:00,
2013-08-21 18:20:00,85.2,77.9,30.11,East,79,0.0,7.0,79,0.00,,,0.33,Wunderground v.1.15,2013-08-21 22:20:00,
2013-08-21 18:30:00,84.7,77.8,30.11,ENE,67,0.0,7.0,80,0.00,,,0.33,Wunderground v.1.15,2013-08-21 22:30:00,
2013-08-21 18:40:00,84.0,77.9,30.10,SE,131,0.0,7.0,82,0.00,,,0.33,Wunderground v.1.15,2013-08-21 22:40:00,